Time;durP1;ratioP1;P1;durP2;ratioP2;P2;SDS_P1;SDS_P2;PMS_P1;PMS_P2;Temp;Humidity;BMP_temperature;BMP_pressure;BME280_temperature;BME280_humidity;BME280_pressure;Samples;Min_cycle;Max_cycle;Signal;HPM_P1;HPM_P2
2023/05/16 00:01:17;;;;;;;;;;;9.50;99.90;;;;;;5134639;27;19931;-71
2023/05/16 00:03:42;;;;;;;;;;;9.50;99.90;;;;;;5134492;27;20027;-70
2023/05/16 00:06:08;;;;;;;;;;;9.40;99.90;;;;;;5133020;27;20026;-72
2023/05/16 00:08:34;;;;;;;;;;;9.40;99.90;;;;;;5134287;27;19946;-73
2023/05/16 00:11:00;;;;;;;;;;;9.40;99.90;;;;;;5133734;27;19930;-72
2023/05/16 00:13:26;;;;;;;;;;;9.40;99.90;;;;;;5134363;27;19979;-71
2023/05/16 00:15:53;;;;;;;;;;;9.40;99.90;;;;;;5148361;27;19923;-71
2023/05/16 00:18:20;;;;;;;;;;;9.40;99.90;;;;;;5129320;27;20394;-70
2023/05/16 00:20:50;;;;;;;;;;;9.30;99.90;;;;;;5135401;27;19923;-78
2023/05/16 00:23:16;;;;;;;;;;;9.30;99.90;;;;;;5117437;27;20329;-69
2023/05/16 00:25:41;;;;;;;;;;;9.20;99.90;;;;;;5119403;27;19924;-71
2023/05/16 00:28:07;;;;;;;;;;;9.10;99.90;;;;;;5128232;27;20060;-70
2023/05/16 00:30:33;;;;;;;;;;;9.10;99.90;;;;;;5096685;28;19928;-70
2023/05/16 00:32:59;;;;;;;;;;;9.10;99.90;;;;;;5133083;27;19928;-70
2023/05/16 00:35:25;;;;;;;;;;;9.10;99.90;;;;;;5135289;27;20342;-71
2023/05/16 00:37:50;;;;;;;;;;;9.10;99.90;;;;;;5131340;27;20014;-75
2023/05/16 00:40:16;;;;;;;;;;;9.10;99.90;;;;;;5133550;27;20384;-71
2023/05/16 00:42:41;;;;;;;;;;;9.10;99.90;;;;;;5133641;27;19931;-70
2023/05/16 00:45:07;;;;;;;;;;;9.10;99.90;;;;;;5130795;27;19928;-71
2023/05/16 00:47:33;;;;;;;;;;;9.10;99.90;;;;;;5114061;27;20419;-75
2023/05/16 00:50:00;;;;;;;;;;;9.10;99.90;;;;;;5132139;27;19945;-73
2023/05/16 00:52:26;;;;;;;;;;;9.10;99.90;;;;;;5133761;27;19927;-71
2023/05/16 00:54:52;;;;;;;;;;;9.00;99.90;;;;;;5134258;27;19992;-79
2023/05/16 00:57:17;;;;;;;;;;;9.00;99.90;;;;;;5115695;27;19965;-71
2023/05/16 00:59:45;;;;;;;;;;;9.00;99.90;;;;;;5129797;27;19930;-71
2023/05/16 01:02:11;;;;;;;;;;;9.00;99.90;;;;;;5112730;28;19966;-70
2023/05/16 01:04:37;;;;;;;;;;;9.00;99.90;;;;;;5130240;27;19927;-72
2023/05/16 01:07:03;;;;;;;;;;;9.10;99.90;;;;;;5124660;27;19934;-71
2023/05/16 01:09:28;;;;;;;;;;;9.10;99.90;;;;;;5122482;27;19927;-71
2023/05/16 01:12:00;;;;;;;;;;;9.00;99.90;;;;;;5133157;27;19923;-78
2023/05/16 01:14:47;;;;;;;;;;;9.10;99.90;;;;;;5133214;27;19923;-72
2023/05/16 01:17:22;;;;;;;;;;;9.00;99.90;;;;;;5126709;27;19924;-71
2023/05/16 01:19:51;;;;;;;;;;;9.00;99.90;;;;;;5119980;27;19928;-70
2023/05/16 01:22:26;;;;;;;;;;;8.90;99.90;;;;;;5132361;27;19938;-71
2023/05/16 01:24:54;;;;;;;;;;;8.90;99.90;;;;;;5132408;27;19931;-72
2023/05/16 01:27:22;;;;;;;;;;;8.90;99.90;;;;;;5118125;27;19923;-71
2023/05/16 01:29:48;;;;;;;;;;;8.90;99.90;;;;;;5131794;27;19923;-73
2023/05/16 01:32:15;;;;;;;;;;;8.80;99.90;;;;;;5114517;27;19924;-70
2023/05/16 01:34:41;;;;;;;;;;;8.80;99.90;;;;;;5133112;27;20003;-69
2023/05/16 01:37:11;;;;;;;;;;;8.70;99.90;;;;;;5132237;27;20006;-72
2023/05/16 01:39:40;;;;;;;;;;;8.80;99.90;;;;;;5132608;27;19931;-69
2023/05/16 01:42:13;;;;;;;;;;;8.70;99.90;;;;;;5130592;27;19927;-74
2023/05/16 01:44:57;;;;;;;;;;;8.70;99.90;;;;;;5149417;27;19967;-70
2023/05/16 01:47:24;;;;;;;;;;;8.70;99.90;;;;;;5132356;27;19928;-71
2023/05/16 01:49:53;;;;;;;;;;;8.60;99.90;;;;;;5132315;27;19923;-70
2023/05/16 01:52:21;;;;;;;;;;;8.60;99.90;;;;;;5133888;27;20051;-68
2023/05/16 01:54:48;;;;;;;;;;;8.60;99.90;;;;;;5168170;27;19928;-67
2023/05/16 01:57:14;;;;;;;;;;;8.50;99.90;;;;;;5133703;27;19993;-67
2023/05/16 01:59:41;;;;;;;;;;;8.50;99.90;;;;;;5134559;27;20295;-68
2023/05/16 02:02:07;;;;;;;;;;;8.50;99.90;;;;;;5133427;27;19927;-67
2023/05/16 02:04:33;;;;;;;;;;;8.50;99.90;;;;;;5134485;27;19934;-67
2023/05/16 02:06:59;;;;;;;;;;;8.40;99.90;;;;;;5134322;27;19976;-67
2023/05/16 02:09:25;;;;;;;;;;;8.50;99.90;;;;;;5133382;27;19931;-67
2023/05/16 02:11:50;;;;;;;;;;;8.40;99.90;;;;;;5134294;27;19923;-68
2023/05/16 02:14:16;;;;;;;;;;;8.40;99.90;;;;;;5134212;27;19927;-72
2023/05/16 02:16:42;;;;;;;;;;;8.40;99.90;;;;;;5132957;27;20353;-68
2023/05/16 02:19:07;;;;;;;;;;;8.40;99.90;;;;;;5133908;27;20020;-68
2023/05/16 02:21:33;;;;;;;;;;;8.40;99.90;;;;;;5132654;27;19939;-67
2023/05/16 02:23:59;;;;;;;;;;;8.40;99.90;;;;;;5132655;27;19923;-69
2023/05/16 02:26:25;;;;;;;;;;;8.40;99.90;;;;;;5132372;27;19924;-74
2023/05/16 02:28:50;;;;;;;;;;;8.40;99.90;;;;;;5133098;27;19924;-69
2023/05/16 02:31:29;;;;;;;;;;;8.40;99.90;;;;;;5133533;27;19928;-67
2023/05/16 02:33:55;;;;;;;;;;;8.40;99.90;;;;;;5133770;27;19927;-69
2023/05/16 02:36:20;;;;;;;;;;;8.40;99.90;;;;;;5133388;27;20392;-67
2023/05/16 02:38:46;;;;;;;;;;;8.40;99.90;;;;;;5133736;27;19954;-71
2023/05/16 02:41:11;;;;;;;;;;;8.30;99.90;;;;;;5132899;27;20056;-67
2023/05/16 02:43:37;;;;;;;;;;;8.30;99.90;;;;;;5115022;27;20551;-67
2023/05/16 02:46:03;;;;;;;;;;;8.30;99.90;;;;;;5132503;27;20308;-66
2023/05/16 02:48:29;;;;;;;;;;;8.30;99.90;;;;;;5132011;27;19924;-67
2023/05/16 02:50:54;;;;;;;;;;;8.30;99.90;;;;;;5132716;27;20023;-67
2023/05/16 02:53:20;;;;;;;;;;;8.30;99.90;;;;;;5132095;27;20043;-67
2023/05/16 02:55:46;;;;;;;;;;;8.30;99.90;;;;;;5132872;27;19924;-68
2023/05/16 02:58:11;;;;;;;;;;;8.30;99.90;;;;;;5132045;27;19923;-67
2023/05/16 03:00:37;;;;;;;;;;;8.30;99.90;;;;;;5133180;27;20043;-67
2023/05/16 03:03:03;;;;;;;;;;;8.30;99.90;;;;;;5132491;27;19923;-68
2023/05/16 03:05:28;;;;;;;;;;;8.30;99.90;;;;;;5132576;27;19920;-67
2023/05/16 03:07:54;;;;;;;;;;;8.30;99.90;;;;;;5133349;27;19924;-67
2023/05/16 03:10:20;;;;;;;;;;;8.30;99.90;;;;;;5132795;27;19975;-67
2023/05/16 03:12:45;;;;;;;;;;;8.30;99.90;;;;;;5132864;27;19923;-67
2023/05/16 03:15:11;;;;;;;;;;;8.30;99.90;;;;;;5132615;27;19946;-68
2023/05/16 03:17:36;;;;;;;;;;;8.30;99.90;;;;;;5133054;27;19927;-68
2023/05/16 03:20:03;;;;;;;;;;;8.20;99.90;;;;;;5132801;27;19946;-68
2023/05/16 03:22:29;;;;;;;;;;;8.20;99.90;;;;;;5132690;27;19992;-67
2023/05/16 03:24:55;;;;;;;;;;;8.20;99.90;;;;;;5114065;28;19978;-70
2023/05/16 03:27:21;;;;;;;;;;;8.20;99.90;;;;;;5132310;27;20304;-68
2023/05/16 03:29:47;;;;;;;;;;;8.20;99.90;;;;;;5132470;27;19934;-67
2023/05/16 03:32:12;;;;;;;;;;;8.20;99.90;;;;;;5132504;28;19924;-75
2023/05/16 03:34:38;;;;;;;;;;;8.10;99.90;;;;;;5132523;28;19932;-69
2023/05/16 03:37:03;;;;;;;;;;;8.10;99.90;;;;;;5131101;28;19953;-69
2023/05/16 03:39:29;;;;;;;;;;;8.10;99.90;;;;;;5130831;28;19930;-68
2023/05/16 03:41:56;;;;;;;;;;;8.10;99.90;;;;;;5114397;28;19923;-67
2023/05/16 03:44:21;;;;;;;;;;;8.10;99.90;;;;;;5131261;28;19924;-67
2023/05/16 03:46:47;;;;;;;;;;;8.10;99.90;;;;;;5131267;28;19957;-67
2023/05/16 03:49:12;;;;;;;;;;;8.10;99.90;;;;;;5131658;28;19993;-76
2023/05/16 03:51:38;;;;;;;;;;;8.10;99.90;;;;;;5114148;28;19969;-72
2023/05/16 03:54:04;;;;;;;;;;;8.10;99.90;;;;;;5132597;27;20415;-67
2023/05/16 03:56:29;;;;;;;;;;;8.10;99.90;;;;;;5130786;28;19992;-67
2023/05/16 03:58:55;;;;;;;;;;;8.10;99.90;;;;;;5132491;28;19923;-66
2023/05/16 04:01:21;;;;;;;;;;;8.10;99.90;;;;;;5132092;28;19976;-67
2023/05/16 04:03:46;;;;;;;;;;;8.10;99.90;;;;;;5131300;28;20026;-67
2023/05/16 04:06:12;;;;;;;;;;;8.10;99.90;;;;;;5132684;28;20052;-67
2023/05/16 04:08:39;;;;;;;;;;;8.10;99.90;;;;;;5132215;28;19923;-66
2023/05/16 04:11:05;;;;;;;;;;;8.10;99.90;;;;;;5132474;27;19992;-67
2023/05/16 04:13:31;;;;;;;;;;;8.10;99.90;;;;;;5131969;27;19931;-67
2023/05/16 04:15:56;;;;;;;;;;;8.10;99.90;;;;;;5132464;27;19927;-67
2023/05/16 04:18:22;;;;;;;;;;;8.10;99.90;;;;;;5131963;28;19933;-68
2023/05/16 04:20:47;;;;;;;;;;;8.10;99.90;;;;;;5132540;27;20318;-67
2023/05/16 04:23:13;;;;;;;;;;;8.10;99.90;;;;;;5130950;28;19923;-67
2023/05/16 04:25:39;;;;;;;;;;;8.10;99.90;;;;;;5130733;28;19972;-67
2023/05/16 04:28:05;;;;;;;;;;;8.20;99.90;;;;;;5132337;27;19923;-67
2023/05/16 04:30:30;;;;;;;;;;;8.20;99.90;;;;;;5132019;27;19927;-68
2023/05/16 04:32:58;;;;;;;;;;;8.20;99.90;;;;;;5134105;27;19928;-68
2023/05/16 04:35:24;;;;;;;;;;;8.30;99.90;;;;;;5135456;27;19932;-69
2023/05/16 04:37:49;;;;;;;;;;;8.50;99.90;;;;;;5135792;27;20042;-68
2023/05/16 04:40:16;;;;;;;;;;;8.70;99.90;;;;;;5136042;27;19923;-67
2023/05/16 04:42:41;;;;;;;;;;;8.90;99.90;;;;;;5135238;27;19923;-68
2023/05/16 04:45:10;;;;;;;;;;;8.90;99.90;;;;;;5135973;27;20257;-68
2023/05/16 04:47:35;;;;;;;;;;;8.90;99.90;;;;;;5134408;27;19938;-67
2023/05/16 04:50:01;;;;;;;;;;;8.80;99.90;;;;;;5134955;27;20425;-68
2023/05/16 04:52:27;;;;;;;;;;;8.90;99.90;;;;;;5134522;27;19988;-67
2023/05/16 04:54:52;;;;;;;;;;;8.90;99.90;;;;;;5136148;27;20005;-67
2023/05/16 04:57:18;;;;;;;;;;;8.90;99.90;;;;;;5134492;27;20368;-68
2023/05/16 04:59:44;;;;;;;;;;;9.00;99.90;;;;;;5133929;27;20013;-69
2023/05/16 05:02:10;;;;;;;;;;;9.00;99.90;;;;;;5135836;27;19923;-68
2023/05/16 05:04:35;;;;;;;;;;;9.00;99.90;;;;;;5135236;27;19924;-67
2023/05/16 05:07:01;;;;;;;;;;;9.20;99.90;;;;;;5134362;27;19923;-67
2023/05/16 05:09:26;;;;;;;;;;;9.70;99.90;;;;;;5135123;27;19931;-67
2023/05/16 05:11:52;;;;;;;;;;;10.60;99.90;;;;;;5135449;27;19931;-70
2023/05/16 05:14:17;;;;;;;;;;;11.40;99.90;;;;;;5117399;27;19947;-67
2023/05/16 05:16:43;;;;;;;;;;;11.50;99.90;;;;;;5134019;27;19996;-67
2023/05/16 05:19:09;;;;;;;;;;;11.20;99.90;;;;;;5134536;27;19972;-68
2023/05/16 05:21:34;;;;;;;;;;;11.00;99.90;;;;;;5135073;27;20022;-69
2023/05/16 05:24:00;;;;;;;;;;;10.70;99.90;;;;;;5135181;27;19966;-67
2023/05/16 05:26:27;;;;;;;;;;;11.10;99.90;;;;;;5150501;27;19923;-75
2023/05/16 05:28:53;;;;;;;;;;;11.60;99.90;;;;;;5135121;27;19923;-67
2023/05/16 05:31:18;;;;;;;;;;;12.30;99.90;;;;;;5135327;27;20416;-67
2023/05/16 05:33:44;;;;;;;;;;;13.10;99.90;;;;;;5133686;27;19974;-68
2023/05/16 05:36:09;;;;;;;;;;;13.70;99.90;;;;;;5134053;27;20249;-70
2023/05/16 05:38:35;;;;;;;;;;;14.40;99.90;;;;;;5134348;27;20038;-68
2023/05/16 05:41:01;;;;;;;;;;;14.80;99.90;;;;;;5134964;27;19923;-68
2023/05/16 05:43:27;;;;;;;;;;;15.40;99.90;;;;;;5133410;27;19932;-76
2023/05/16 05:45:53;;;;;;;;;;;15.80;99.90;;;;;;5134788;27;19923;-68
2023/05/16 05:48:18;;;;;;;;;;;15.80;99.90;;;;;;5135027;27;19930;-68
2023/05/16 05:50:44;;;;;;;;;;;15.40;99.90;;;;;;5115881;27;19924;-67
2023/05/16 05:53:10;;;;;;;;;;;15.40;99.90;;;;;;5133519;27;20015;-68
2023/05/16 05:55:35;;;;;;;;;;;15.60;99.90;;;;;;5133115;27;19953;-66
2023/05/16 05:58:01;;;;;;;;;;;15.60;99.90;;;;;;5134334;27;19961;-66
2023/05/16 06:00:28;;;;;;;;;;;15.90;99.90;;;;;;5134440;27;19927;-66
2023/05/16 06:02:53;;;;;;;;;;;16.30;99.90;;;;;;5134087;27;19928;-65
2023/05/16 06:05:19;;;;;;;;;;;16.60;99.90;;;;;;5132683;27;20492;-66
2023/05/16 06:07:44;;;;;;;;;;;17.10;99.90;;;;;;5133912;27;19924;-67
2023/05/16 06:10:10;;;;;;;;;;;17.60;99.90;;;;;;5134377;27;19946;-66
2023/05/16 06:12:36;;;;;;;;;;;17.90;99.90;;;;;;5133803;27;19923;-69
2023/05/16 06:15:01;;;;;;;;;;;17.60;99.90;;;;;;5132938;27;20369;-67
2023/05/16 06:17:27;;;;;;;;;;;17.60;99.90;;;;;;5134369;27;19924;-67
2023/05/16 06:19:53;;;;;;;;;;;17.90;99.90;;;;;;5132825;27;20010;-67
2023/05/16 06:22:18;;;;;;;;;;;18.30;99.90;;;;;;5115890;27;19923;-67
2023/05/16 06:24:44;;;;;;;;;;;18.50;99.50;;;;;;5132192;27;19923;-67
2023/05/16 06:27:09;;;;;;;;;;;18.20;99.00;;;;;;5134026;27;20372;-66
2023/05/16 06:29:35;;;;;;;;;;;17.80;99.10;;;;;;5132726;27;19929;-72
2023/05/16 06:32:01;;;;;;;;;;;16.90;99.70;;;;;;5134077;27;20424;-67
2023/05/16 06:34:27;;;;;;;;;;;16.90;99.50;;;;;;5133019;27;20360;-67
2023/05/16 06:36:53;;;;;;;;;;;17.40;99.10;;;;;;5133339;27;19969;-67
2023/05/16 06:39:18;;;;;;;;;;;18.00;98.90;;;;;;5133929;27;20373;-67
2023/05/16 06:41:44;;;;;;;;;;;18.50;98.50;;;;;;5132060;27;19976;-67
2023/05/16 06:44:10;;;;;;;;;;;18.90;97.50;;;;;;5132524;27;20402;-67
2023/05/16 06:46:37;;;;;;;;;;;18.80;97.80;;;;;;5133418;27;19923;-75
2023/05/16 06:49:02;;;;;;;;;;;19.00;97.30;;;;;;5133828;27;20277;-68
2023/05/16 06:51:28;;;;;;;;;;;18.60;97.60;;;;;;5133782;27;19930;-67
2023/05/16 06:53:53;;;;;;;;;;;17.70;96.60;;;;;;5133148;27;19924;-67
2023/05/16 06:56:20;;;;;;;;;;;17.50;96.10;;;;;;5132021;27;19930;-66
2023/05/16 06:58:46;;;;;;;;;;;17.90;96.90;;;;;;5132206;27;19924;-67
2023/05/16 07:01:11;;;;;;;;;;;18.50;96.10;;;;;;5132656;27;19931;-67
2023/05/16 07:03:37;;;;;;;;;;;19.00;95.30;;;;;;5115341;27;19924;-74
2023/05/16 07:06:03;;;;;;;;;;;19.40;94.70;;;;;;5132982;27;19968;-67
2023/05/16 07:08:28;;;;;;;;;;;19.70;94.90;;;;;;5132443;27;19928;-69
2023/05/16 07:10:54;;;;;;;;;;;20.00;94.60;;;;;;5131810;27;20404;-67
2023/05/16 07:13:19;;;;;;;;;;;20.20;94.50;;;;;;5132998;27;19972;-68
2023/05/16 07:15:45;;;;;;;;;;;20.60;94.80;;;;;;5132034;27;19939;-68
2023/05/16 07:18:11;;;;;;;;;;;20.60;94.40;;;;;;5132862;27;19976;-66
2023/05/16 07:20:36;;;;;;;;;;;20.00;95.00;;;;;;5133109;27;19931;-67
2023/05/16 07:23:02;;;;;;;;;;;19.10;94.80;;;;;;5132933;27;19923;-67
2023/05/16 07:25:27;;;;;;;;;;;17.70;95.20;;;;;;5132740;27;19967;-67
2023/05/16 07:27:53;;;;;;;;;;;17.20;96.00;;;;;;5132562;28;20010;-67
2023/05/16 07:30:20;;;;;;;;;;;16.90;97.30;;;;;;5131802;28;19931;-67
2023/05/16 07:32:45;;;;;;;;;;;17.70;97.00;;;;;;5131803;28;19930;-66
2023/05/16 07:35:12;;;;;;;;;;;18.40;95.60;;;;;;5131981;28;20284;-66
2023/05/16 07:37:40;;;;;;;;;;;19.20;95.50;;;;;;5133086;27;20008;-68
2023/05/16 07:40:06;;;;;;;;;;;19.80;94.70;;;;;;5132848;27;20280;-69
2023/05/16 07:42:32;;;;;;;;;;;20.50;94.10;;;;;;5132802;27;19930;-67
2023/05/16 07:44:58;;;;;;;;;;;20.80;93.60;;;;;;5131311;28;19923;-66
2023/05/16 07:47:23;;;;;;;;;;;20.80;93.60;;;;;;5131925;28;19946;-66
2023/05/16 07:49:49;;;;;;;;;;;21.10;93.10;;;;;;5132414;28;19977;-66
2023/05/16 07:52:14;;;;;;;;;;;21.40;92.80;;;;;;5114676;28;19946;-69
2023/05/16 07:54:40;;;;;;;;;;;22.00;93.30;;;;;;5131724;28;19974;-67
2023/05/16 07:57:06;;;;;;;;;;;21.90;92.10;;;;;;5132631;28;19923;-67
2023/05/16 07:59:31;;;;;;;;;;;21.40;91.80;;;;;;5131894;28;19930;-66
2023/05/16 08:01:57;;;;;;;;;;;20.30;92.30;;;;;;5132497;28;19968;-66
2023/05/16 08:04:23;;;;;;;;;;;19.70;93.00;;;;;;5114769;28;19954;-66
2023/05/16 08:06:48;;;;;;;;;;;19.60;92.80;;;;;;5133490;27;19924;-67
2023/05/16 08:09:14;;;;;;;;;;;19.40;93.50;;;;;;5136762;27;20380;-67
2023/05/16 08:11:40;;;;;;;;;;;19.00;93.40;;;;;;5118474;27;19930;-66
2023/05/16 08:14:05;;;;;;;;;;;18.50;93.60;;;;;;5135210;27;19933;-65
2023/05/16 08:16:31;;;;;;;;;;;17.60;94.30;;;;;;5136799;27;19976;-66
2023/05/16 08:18:56;;;;;;;;;;;16.80;96.60;;;;;;5135175;27;19928;-67
2023/05/16 08:21:22;;;;;;;;;;;16.20;96.80;;;;;;5136537;27;20010;-67
2023/05/16 08:23:47;;;;;;;;;;;16.70;97.60;;;;;;5136412;27;19930;-74
2023/05/16 08:26:13;;;;;;;;;;;17.80;97.50;;;;;;5134853;27;19923;-69
2023/05/16 08:28:39;;;;;;;;;;;18.80;96.00;;;;;;5136035;27;19923;-68
2023/05/16 08:31:04;;;;;;;;;;;19.50;94.20;;;;;;5134568;27;19927;-68
2023/05/16 08:33:30;;;;;;;;;;;20.00;94.60;;;;;;5136426;27;19975;-68
2023/05/16 08:35:55;;;;;;;;;;;20.50;93.80;;;;;;5117510;27;19923;-68
2023/05/16 08:38:21;;;;;;;;;;;20.70;93.30;;;;;;5136246;27;19945;-68
2023/05/16 08:40:47;;;;;;;;;;;20.70;93.40;;;;;;5135033;27;19928;-69
2023/05/16 08:43:12;;;;;;;;;;;20.00;93.90;;;;;;5134722;27;19931;-68
2023/05/16 08:45:39;;;;;;;;;;;19.30;93.90;;;;;;5134490;27;19923;-67
2023/05/16 08:48:06;;;;;;;;;;;18.30;95.00;;;;;;5135720;27;20019;-67
2023/05/16 08:50:31;;;;;;;;;;;17.90;96.10;;;;;;5135864;27;19946;-67
2023/05/16 08:52:57;;;;;;;;;;;17.90;96.10;;;;;;5134441;27;19923;-67
2023/05/16 08:55:25;;;;;;;;;;;17.70;96.30;;;;;;5135799;27;19924;-66
2023/05/16 08:57:51;;;;;;;;;;;17.50;96.50;;;;;;5135883;27;19923;-70
2023/05/16 09:00:18;;;;;;;;;;;17.10;96.10;;;;;;5134204;27;20388;-68
2023/05/16 09:02:43;;;;;;;;;;;17.20;96.80;;;;;;5135579;27;20364;-66
2023/05/16 09:05:13;;;;;;;;;;;18.20;96.20;;;;;;5134955;27;19924;-66
2023/05/16 09:07:39;;;;;;;;;;;19.10;95.50;;;;;;5134800;27;19923;-69
2023/05/16 09:10:05;;;;;;;;;;;19.70;94.90;;;;;;5134476;27;19923;-65
2023/05/16 09:12:31;;;;;;;;;;;19.20;94.10;;;;;;5135525;27;19930;-66
2023/05/16 09:14:57;;;;;;;;;;;18.90;94.30;;;;;;5135121;27;19963;-66
2023/05/16 09:17:23;;;;;;;;;;;19.10;94.40;;;;;;5131687;27;19930;-66
2023/05/16 09:19:51;;;;;;;;;;;19.20;94.50;;;;;;5135544;27;20002;-66
2023/05/16 09:22:17;;;;;;;;;;;19.10;95.90;;;;;;5134293;27;19988;-69
2023/05/16 09:24:43;;;;;;;;;;;18.60;96.50;;;;;;5131700;27;20896;-68
2023/05/16 09:27:13;;;;;;;;;;;18.00;96.70;;;;;;5150284;27;19923;-68
2023/05/16 09:29:40;;;;;;;;;;;17.70;97.20;;;;;;5133832;27;19924;-67
2023/05/16 09:32:09;;;;;;;;;;;16.90;99.00;;;;;;5130297;27;19924;-66
2023/05/16 09:34:38;;;;;;;;;;;16.10;99.90;;;;;;5133675;27;19923;-66
2023/05/16 09:37:04;;;;;;;;;;;15.50;99.90;;;;;;5134434;27;19924;-67
2023/05/16 09:39:30;;;;;;;;;;;15.30;99.90;;;;;;5134958;27;19923;-67
2023/05/16 09:41:57;;;;;;;;;;;15.30;99.90;;;;;;5134837;27;19924;-66
2023/05/16 09:44:23;;;;;;;;;;;15.90;99.90;;;;;;5134147;27;20018;-65
2023/05/16 09:46:48;;;;;;;;;;;16.60;99.90;;;;;;5134538;27;20079;-66
2023/05/16 09:49:14;;;;;;;;;;;16.90;99.90;;;;;;5115526;27;19924;-64
2023/05/16 09:51:40;;;;;;;;;;;16.90;99.90;;;;;;5134631;27;20041;-64
2023/05/16 09:54:09;;;;;;;;;;;17.10;99.90;;;;;;5133843;27;19924;-65
2023/05/16 09:56:47;;;;;;;;;;;17.10;99.90;;;;;;5133175;27;19923;-63
2023/05/16 09:59:13;;;;;;;;;;;16.90;99.90;;;;;;5133660;27;19976;-65
2023/05/16 10:01:39;;;;;;;;;;;16.40;99.90;;;;;;5132644;27;19923;-62
2023/05/16 10:04:05;;;;;;;;;;;16.20;99.90;;;;;;5133534;27;19931;-64
2023/05/16 10:06:31;;;;;;;;;;;16.20;99.90;;;;;;5134372;27;19924;-64
2023/05/16 10:08:57;;;;;;;;;;;16.20;99.90;;;;;;5133903;27;20011;-64
2023/05/16 10:11:23;;;;;;;;;;;16.50;99.90;;;;;;5133955;27;19923;-63
2023/05/16 10:13:51;;;;;;;;;;;16.50;99.90;;;;;;5133920;27;19931;-64
2023/05/16 10:16:17;;;;;;;;;;;16.80;99.90;;;;;;5166944;27;19924;-66
2023/05/16 10:18:43;;;;;;;;;;;16.80;99.90;;;;;;5133823;27;19957;-64
2023/05/16 10:21:13;;;;;;;;;;;16.20;99.90;;;;;;5133820;27;19948;-64
2023/05/16 10:23:42;;;;;;;;;;;15.80;99.90;;;;;;5134333;27;19968;-65
2023/05/16 10:26:08;;;;;;;;;;;15.50;99.90;;;;;;5133014;27;19976;-64
2023/05/16 10:28:38;;;;;;;;;;;15.40;99.90;;;;;;5133550;27;19963;-65
2023/05/16 10:31:04;;;;;;;;;;;15.20;99.90;;;;;;5132807;27;19929;-72
2023/05/16 10:33:30;;;;;;;;;;;15.20;99.90;;;;;;5133014;27;20512;-65
2023/05/16 10:35:56;;;;;;;;;;;15.20;99.90;;;;;;5133958;27;20014;-66
2023/05/16 10:38:23;;;;;;;;;;;15.00;99.90;;;;;;5132465;27;19923;-68
2023/05/16 10:40:49;;;;;;;;;;;14.90;99.90;;;;;;5133107;27;19930;-65
2023/05/16 10:43:29;;;;;;;;;;;15.10;99.90;;;;;;5133406;27;19963;-65
2023/05/16 10:46:21;;;;;;;;;;;15.40;99.90;;;;;;5132472;27;20380;-65
2023/05/16 10:48:47;;;;;;;;;;;15.60;99.90;;;;;;5131106;27;19972;-64
2023/05/16 10:51:21;;;;;;;;;;;15.70;99.90;;;;;;5133141;27;19923;-67
2023/05/16 10:53:50;;;;;;;;;;;15.60;99.90;;;;;;5115607;27;19927;-67
2023/05/16 10:56:20;;;;;;;;;;;15.70;99.90;;;;;;5131654;27;20402;-70
2023/05/16 10:58:46;;;;;;;;;;;15.70;99.90;;;;;;5132364;27;19931;-68
2023/05/16 11:01:21;;;;;;;;;;;15.80;99.50;;;;;;5132034;27;20292;-70
2023/05/16 11:03:59;;;;;;;;;;;16.00;99.80;;;;;;5132669;27;19934;-66
2023/05/16 11:06:26;;;;;;;;;;;16.00;99.70;;;;;;5133138;27;19970;-66
2023/05/16 11:09:08;;;;;;;;;;;16.00;99.10;;;;;;5133585;27;19923;-67
2023/05/16 11:11:46;;;;;;;;;;;16.10;99.60;;;;;;5131960;27;20018;-67
2023/05/16 11:14:18;;;;;;;;;;;16.10;99.90;;;;;;5132733;27;19930;-68
2023/05/16 11:16:47;;;;;;;;;;;16.10;99.20;;;;;;5133426;27;20261;-67
2023/05/16 11:19:12;;;;;;;;;;;16.20;99.70;;;;;;5133010;27;19923;-67
2023/05/16 11:21:57;;;;;;;;;;;16.50;99.10;;;;;;5132976;27;19965;-67
2023/05/16 11:24:29;;;;;;;;;;;16.60;97.90;;;;;;5132485;27;19981;-67
2023/05/16 11:26:54;;;;;;;;;;;16.60;96.90;;;;;;5133227;27;19924;-68
2023/05/16 11:29:21;;;;;;;;;;;16.70;97.20;;;;;;5131239;28;19976;-66
2023/05/16 11:31:46;;;;;;;;;;;16.40;96.20;;;;;;5133007;27;20010;-65
2023/05/16 11:34:12;;;;;;;;;;;16.30;97.40;;;;;;5131382;28;20363;-67
2023/05/16 11:36:39;;;;;;;;;;;16.20;98.20;;;;;;5132135;28;20280;-69
2023/05/16 11:39:09;;;;;;;;;;;16.00;98.00;;;;;;5131734;28;19931;-67
2023/05/16 11:41:35;;;;;;;;;;;15.90;98.80;;;;;;5135381;27;19989;-68
2023/05/16 11:44:00;;;;;;;;;;;15.60;99.70;;;;;;5136151;27;20402;-68
2023/05/16 11:46:29;;;;;;;;;;;15.60;99.90;;;;;;5135492;27;19934;-67
2023/05/16 11:48:55;;;;;;;;;;;15.80;99.90;;;;;;5136795;27;19923;-66
2023/05/16 11:51:21;;;;;;;;;;;15.80;99.40;;;;;;5135537;27;19923;-67
2023/05/16 11:53:48;;;;;;;;;;;15.90;99.30;;;;;;5136007;27;19924;-66
2023/05/16 11:56:14;;;;;;;;;;;15.80;99.30;;;;;;5135501;27;20043;-72
2023/05/16 11:58:41;;;;;;;;;;;15.90;99.20;;;;;;5136013;27;19931;-67
2023/05/16 12:01:07;;;;;;;;;;;15.70;99.20;;;;;;5136843;27;20341;-66
2023/05/16 12:03:34;;;;;;;;;;;15.60;99.80;;;;;;5136414;27;19994;-68
2023/05/16 12:05:59;;;;;;;;;;;15.70;99.90;;;;;;5135266;27;19923;-74
2023/05/16 12:08:25;;;;;;;;;;;15.60;99.70;;;;;;5135252;27;19930;-67
2023/05/16 12:10:51;;;;;;;;;;;15.60;99.90;;;;;;5136489;27;19924;-68
2023/05/16 12:13:18;;;;;;;;;;;15.50;99.90;;;;;;5136268;27;20423;-66
2023/05/16 12:15:44;;;;;;;;;;;15.50;99.90;;;;;;5136240;27;20364;-66
2023/05/16 12:18:10;;;;;;;;;;;15.50;99.90;;;;;;5136612;27;19949;-68
2023/05/16 12:20:35;;;;;;;;;;;15.50;99.90;;;;;;5134768;27;20361;-71
2023/05/16 12:23:01;;;;;;;;;;;15.40;99.90;;;;;;5135355;27;19923;-67
2023/05/16 12:25:40;;;;;;;;;;;15.30;99.90;;;;;;5135539;27;19982;-67
2023/05/16 12:28:07;;;;;;;;;;;15.20;99.90;;;;;;5136003;27;20377;-68
2023/05/16 12:30:32;;;;;;;;;;;15.30;99.90;;;;;;5136236;27;19938;-67
2023/05/16 12:32:59;;;;;;;;;;;15.30;99.90;;;;;;5118370;27;20018;-67
2023/05/16 12:35:28;;;;;;;;;;;15.30;99.90;;;;;;5134737;27;20439;-67
2023/05/16 12:37:55;;;;;;;;;;;15.30;99.90;;;;;;5136255;27;20291;-67
2023/05/16 12:40:22;;;;;;;;;;;15.20;99.90;;;;;;5135008;27;19930;-67
2023/05/16 12:42:52;;;;;;;;;;;15.10;99.90;;;;;;5136234;27;19924;-67
2023/05/16 12:45:17;;;;;;;;;;;14.90;99.90;;;;;;5136187;27;20296;-71
2023/05/16 12:47:43;;;;;;;;;;;14.60;99.90;;;;;;5134754;27;19924;-68
2023/05/16 12:50:10;;;;;;;;;;;14.40;99.90;;;;;;5135703;27;19931;-67
2023/05/16 12:52:36;;;;;;;;;;;14.50;99.90;;;;;;5134018;27;19927;-67
2023/05/16 12:55:02;;;;;;;;;;;14.40;99.90;;;;;;5135940;27;19968;-66
2023/05/16 12:57:27;;;;;;;;;;;14.50;99.90;;;;;;5135506;27;20006;-69
2023/05/16 12:59:53;;;;;;;;;;;14.60;99.90;;;;;;5135448;27;19924;-65
2023/05/16 13:02:18;;;;;;;;;;;14.70;99.90;;;;;;5135945;27;19930;-68
2023/05/16 13:04:44;;;;;;;;;;;14.80;99.90;;;;;;5135573;27;20299;-68
2023/05/16 13:07:11;;;;;;;;;;;14.80;99.90;;;;;;5134384;27;20401;-67
2023/05/16 13:09:36;;;;;;;;;;;14.90;99.90;;;;;;5134033;27;19934;-65
2023/05/16 13:12:03;;;;;;;;;;;15.10;99.90;;;;;;5169517;27;19923;-67
2023/05/16 13:14:28;;;;;;;;;;;15.20;99.90;;;;;;5135203;27;19923;-65
2023/05/16 13:16:54;;;;;;;;;;;15.20;99.90;;;;;;5135576;27;20257;-65
2023/05/16 13:19:21;;;;;;;;;;;15.30;99.90;;;;;;5135613;27;19924;-65
2023/05/16 13:21:47;;;;;;;;;;;15.30;99.90;;;;;;5116911;27;19984;-65
2023/05/16 13:24:12;;;;;;;;;;;15.10;99.90;;;;;;5117288;27;19924;-64
2023/05/16 13:26:38;;;;;;;;;;;15.00;99.90;;;;;;5134957;27;20249;-64
2023/05/16 13:29:04;;;;;;;;;;;14.90;99.90;;;;;;5117161;27;19988;-65
2023/05/16 13:31:29;;;;;;;;;;;14.70;99.90;;;;;;5134567;27;19929;-65
2023/05/16 13:33:55;;;;;;;;;;;14.70;99.90;;;;;;5135217;27;19969;-65
2023/05/16 13:36:21;;;;;;;;;;;14.70;99.90;;;;;;5133620;27;20018;-65
2023/05/16 13:38:46;;;;;;;;;;;14.70;99.90;;;;;;5134536;27;19927;-66
2023/05/16 13:41:12;;;;;;;;;;;14.60;99.90;;;;;;5133381;27;19924;-66
2023/05/16 13:43:38;;;;;;;;;;;14.60;99.90;;;;;;5134525;27;19923;-66
2023/05/16 13:46:04;;;;;;;;;;;14.60;99.90;;;;;;5133667;27;20256;-65
2023/05/16 13:48:29;;;;;;;;;;;14.60;99.90;;;;;;5133567;27;19927;-65
2023/05/16 13:50:55;;;;;;;;;;;14.40;99.90;;;;;;5134651;27;19927;-67
2023/05/16 13:53:21;;;;;;;;;;;14.30;99.90;;;;;;5133670;27;20368;-65
2023/05/16 13:55:47;;;;;;;;;;;14.40;99.90;;;;;;5134417;27;20084;-65
2023/05/16 13:58:12;;;;;;;;;;;14.30;99.90;;;;;;5116318;27;19948;-67
2023/05/16 14:00:38;;;;;;;;;;;14.30;99.90;;;;;;5134271;27;19947;-65
2023/05/16 14:03:03;;;;;;;;;;;14.30;99.90;;;;;;5134444;27;19999;-65
2023/05/16 14:05:29;;;;;;;;;;;14.40;99.90;;;;;;5114876;27;20271;-73
2023/05/16 14:07:55;;;;;;;;;;;14.50;99.90;;;;;;5134719;27;19979;-65
2023/05/16 14:10:20;;;;;;;;;;;14.50;99.90;;;;;;5133358;27;19951;-65
2023/05/16 14:12:46;;;;;;;;;;;14.60;99.90;;;;;;5115725;27;19927;-69
2023/05/16 14:15:11;;;;;;;;;;;14.50;99.90;;;;;;5134355;27;19923;-67
2023/05/16 14:17:37;;;;;;;;;;;14.40;99.90;;;;;;5134038;27;19923;-65